createdAt,value
2023-03-05T00:00:28.580Z,7.40
2023-03-05T00:02:58.689Z,7.30
2023-03-05T00:05:28.867Z,7.30
2023-03-05T00:08:02.434Z,7.30
2023-03-05T00:10:32.484Z,7.30
2023-03-05T00:13:02.112Z,7.30
2023-03-05T00:15:32.679Z,7.20
2023-03-05T00:18:04.195Z,7.30
2023-03-05T00:20:37.313Z,7.30
2023-03-05T00:23:10.013Z,7.20
2023-03-05T00:25:41.321Z,7.20
2023-03-05T00:28:12.835Z,7.20
2023-03-05T00:30:49.054Z,7.20
2023-03-05T00:33:17.332Z,7.10
2023-03-05T00:35:50.934Z,7.10
2023-03-05T00:38:26.299Z,7.10
2023-03-05T00:40:56.509Z,7.10
2023-03-05T00:43:26.958Z,7.10
2023-03-05T00:45:56.201Z,7.10
2023-03-05T00:48:37.192Z,7.00
2023-03-05T00:51:06.959Z,7.00
2023-03-05T00:53:36.217Z,7.00
2023-03-05T00:56:08.205Z,7.10
2023-03-05T00:58:41.001Z,7.00
2023-03-05T01:01:11.132Z,7.10
2023-03-05T01:03:40.770Z,7.00
2023-03-05T01:06:15.900Z,6.90
2023-03-05T01:08:45.818Z,6.90
2023-03-05T01:11:20.260Z,7.00
2023-03-05T01:13:51.602Z,7.00
2023-03-05T01:16:26.251Z,7.00
2023-03-05T01:18:57.034Z,7.00
2023-03-05T01:21:31.735Z,7.00
2023-03-05T01:24:02.434Z,7.00
2023-03-05T01:26:34.140Z,7.00
2023-03-05T01:29:06.274Z,7.00
2023-03-05T01:31:37.083Z,7.00
2023-03-05T01:34:08.674Z,7.00
2023-03-05T01:36:37.984Z,7.00
2023-03-05T01:39:13.370Z,6.90
2023-03-05T01:41:54.622Z,7.00
2023-03-05T01:44:29.524Z,6.90
2023-03-05T01:47:01.242Z,6.90
2023-03-05T01:49:39.949Z,6.90
2023-03-05T01:52:19.774Z,6.90
2023-03-05T01:54:53.548Z,6.90
2023-03-05T02:00:44.501Z,6.90
2023-03-05T02:03:14.858Z,6.90
2023-03-05T02:05:44.985Z,6.70
2023-03-05T02:08:18.300Z,6.80
2023-03-05T02:10:50.485Z,6.80
2023-03-05T02:13:26.316Z,6.80
2023-03-05T02:15:58.007Z,6.70
2023-03-05T02:18:31.420Z,6.70
2023-03-05T02:21:13.374Z,6.70
2023-03-05T02:23:46.179Z,6.60
2023-03-05T02:26:15.912Z,6.50
2023-03-05T02:28:54.187Z,6.50
2023-03-05T02:31:27.579Z,6.30
2023-03-05T02:33:59.427Z,6.30
2023-03-05T02:36:29.239Z,6.20
2023-03-05T02:39:00.116Z,6.20
2023-03-05T02:41:29.380Z,6.10
2023-03-05T02:44:02.181Z,6.10
2023-03-05T02:46:33.232Z,6.10
2023-03-05T02:49:05.556Z,6.10
2023-03-05T02:51:36.994Z,6.10
2023-03-05T02:54:11.145Z,6.10
2023-03-05T02:56:43.468Z,6.10
2023-03-05T02:59:13.528Z,6.10
2023-03-05T03:01:41.955Z,6.10
2023-03-05T03:04:13.893Z,6.00
2023-03-05T03:06:43.005Z,6.00
2023-03-05T03:09:13.085Z,6.00
2023-03-05T03:11:46.712Z,6.00
2023-03-05T03:14:19.045Z,6.00
2023-03-05T03:16:48.658Z,6.00
2023-03-05T03:19:17.256Z,6.00
2023-03-05T03:21:56.921Z,5.90
2023-03-05T03:24:28.277Z,5.90
2023-03-05T03:26:56.804Z,5.80
2023-03-05T03:29:28.172Z,5.80
2023-03-05T03:31:57.326Z,5.80
2023-03-05T03:34:31.018Z,5.80
2023-03-05T03:37:00.137Z,5.80
2023-03-05T03:39:44.320Z,5.80
2023-03-05T03:42:23.684Z,5.70
2023-03-05T03:45:02.721Z,5.70
2023-03-05T03:47:33.897Z,5.70
2023-03-05T03:50:04.401Z,5.60
2023-03-05T03:52:36.336Z,5.50
2023-03-05T03:55:06.129Z,5.50
2023-03-05T03:57:34.713Z,5.60
2023-03-05T04:00:08.620Z,5.60
2023-03-05T04:05:25.328Z,5.70
2023-03-05T04:07:56.390Z,5.70
2023-03-05T04:10:31.845Z,5.70
2023-03-05T04:13:00.668Z,5.70
2023-03-05T04:15:34.113Z,5.60
2023-03-05T04:18:04.570Z,5.60
2023-03-05T04:20:39.044Z,5.60
2023-03-05T04:23:10.908Z,5.50
2023-03-05T04:25:42.476Z,5.60
2023-03-05T04:28:14.603Z,5.50
2023-03-05T04:30:47.966Z,5.50
2023-03-05T04:33:18.080Z,5.50
2023-03-05T04:35:46.664Z,5.50
2023-03-05T04:38:16.717Z,5.40
2023-03-05T04:40:49.521Z,5.40
2023-03-05T04:43:18.762Z,5.50
2023-03-05T04:45:51.234Z,5.50
2023-03-05T04:48:21.610Z,5.50
2023-03-05T04:50:56.949Z,5.50
2023-03-05T04:53:28.546Z,5.40
2023-03-05T04:55:58.162Z,5.40
2023-03-05T04:58:28.514Z,5.40
2023-03-05T05:01:08.024Z,5.40
2023-03-05T05:03:39.384Z,5.40
2023-03-05T05:06:12.381Z,5.40
2023-03-05T05:08:45.021Z,5.30
2023-03-05T05:11:15.925Z,5.30
2023-03-05T05:13:50.761Z,5.30
2023-03-05T05:16:19.602Z,5.30
2023-03-05T05:18:50.448Z,5.20
2023-03-05T05:21:25.385Z,5.10
2023-03-05T05:23:54.277Z,5.20
2023-03-05T05:26:26.438Z,5.20
2023-03-05T05:28:55.153Z,5.30
2023-03-05T05:31:25.180Z,5.20
2023-03-05T05:33:56.073Z,5.30
2023-03-05T05:36:27.420Z,5.20
2023-03-05T05:39:09.018Z,5.20
2023-03-05T05:41:43.417Z,5.30
2023-03-05T05:44:15.285Z,5.20
2023-03-05T05:46:46.840Z,5.30
2023-03-05T05:49:26.007Z,5.30
2023-03-05T05:51:55.729Z,5.20
2023-03-05T05:54:25.369Z,5.20
2023-03-05T05:56:57.372Z,5.20
2023-03-05T05:59:38.181Z,5.30
2023-03-05T06:02:16.795Z,5.30
2023-03-05T06:04:48.429Z,5.30
2023-03-05T06:07:18.155Z,5.20
2023-03-05T06:09:48.608Z,5.20
2023-03-05T06:12:19.314Z,5.10
2023-03-05T06:14:48.540Z,5.10
2023-03-05T06:17:30.344Z,5.10
2023-03-05T06:19:59.999Z,5.10
2023-03-05T06:22:27.934Z,5.20
2023-03-05T06:24:57.742Z,5.30
2023-03-05T06:27:34.053Z,5.40
2023-03-05T06:30:07.325Z,5.50
2023-03-05T06:32:39.668Z,5.60
2023-03-05T06:35:10.353Z,5.50
2023-03-05T06:37:44.485Z,5.50
2023-03-05T06:40:19.696Z,5.50
2023-03-05T06:42:54.981Z,5.50
2023-03-05T06:45:23.475Z,5.50
2023-03-05T06:47:51.633Z,5.60
2023-03-05T06:50:21.740Z,5.50
2023-03-05T06:52:53.703Z,5.50
2023-03-05T06:55:23.701Z,5.50
2023-03-05T06:57:51.686Z,5.60
2023-03-05T07:00:26.863Z,5.60
2023-03-05T07:02:59.635Z,5.40
2023-03-05T07:05:34.326Z,5.40
2023-03-05T07:08:06.239Z,5.40
2023-03-05T07:10:46.069Z,5.40
2023-03-05T07:13:16.763Z,5.30
2023-03-05T07:15:47.656Z,5.20
2023-03-05T07:18:20.995Z,5.30
2023-03-05T07:20:49.619Z,5.20
2023-03-05T07:23:23.858Z,5.30
2023-03-05T07:25:53.266Z,5.20
2023-03-05T07:28:24.469Z,5.20
2023-03-05T07:30:59.732Z,5.30
2023-03-05T07:33:27.677Z,5.40
2023-03-05T07:35:57.505Z,5.50
2023-03-05T07:38:27.530Z,5.60
2023-03-05T07:40:58.367Z,5.60
2023-03-05T07:43:31.671Z,5.70
2023-03-05T07:46:08.216Z,5.70
2023-03-05T07:48:39.258Z,5.80
2023-03-05T07:51:13.923Z,5.90
2023-03-05T07:53:48.489Z,5.90
2023-03-05T07:56:27.523Z,5.90
2023-03-05T07:58:55.191Z,5.90
2023-03-05T08:01:24.208Z,6.00
2023-03-05T08:03:55.547Z,6.00
2023-03-05T08:06:30.407Z,6.00
2023-03-05T08:09:03.523Z,6.00
2023-03-05T08:11:33.189Z,6.00
2023-03-05T08:14:02.112Z,5.90
2023-03-05T08:16:36.475Z,5.90
2023-03-05T08:19:04.554Z,6.00
2023-03-05T08:21:35.557Z,6.00
2023-03-05T08:24:09.279Z,6.00
2023-03-05T08:26:51.392Z,6.10
2023-03-05T08:29:28.546Z,6.10
2023-03-05T08:31:59.102Z,6.20
2023-03-05T08:34:30.948Z,6.20
2023-03-05T08:37:02.458Z,6.30
2023-03-05T08:39:33.460Z,6.40
2023-03-05T08:42:08.951Z,6.40
2023-03-05T08:44:38.594Z,6.40
2023-03-05T08:47:11.608Z,6.40
2023-03-05T08:49:44.405Z,6.30
2023-03-05T08:52:14.420Z,6.40
2023-03-05T08:54:45.948Z,6.50
2023-03-05T08:57:14.764Z,6.60
2023-03-05T08:59:44.679Z,6.60
2023-03-05T09:02:15.184Z,6.50
2023-03-05T09:04:58.482Z,6.50
2023-03-05T09:07:27.443Z,6.50
2023-03-05T09:09:57.482Z,6.50
2023-03-05T09:12:29.827Z,6.60
2023-03-05T09:14:58.451Z,6.60
2023-03-05T09:17:30.936Z,6.60
2023-03-05T09:20:02.450Z,6.70
2023-03-05T09:22:36.217Z,6.70
2023-03-05T09:25:23.758Z,6.70
2023-03-05T09:27:52.858Z,6.70
2023-03-05T09:30:28.196Z,6.80
2023-03-05T09:32:57.637Z,6.80
2023-03-05T09:35:28.243Z,6.80
2023-03-05T09:40:59.756Z,7.00
2023-03-05T09:43:46.513Z,7.10
2023-03-05T09:46:22.481Z,7.10
2023-03-05T09:49:16.433Z,7.20
2023-03-05T09:54:40.950Z,7.40
2023-03-05T09:57:19.938Z,7.40
2023-03-05T10:00:10.226Z,7.40
2023-03-05T10:02:56.002Z,7.40
2023-03-05T10:05:54.543Z,7.60
2023-03-05T10:08:33.047Z,7.60
2023-03-05T10:11:23.455Z,7.70
2023-03-05T10:13:53.903Z,7.80
2023-03-05T10:16:34.062Z,7.80
2023-03-05T10:19:20.762Z,7.70
2023-03-05T10:22:23.754Z,7.80
2023-03-05T10:25:17.985Z,7.70
2023-03-05T10:28:19.262Z,7.80
2023-03-05T10:30:54.704Z,7.80
2023-03-05T10:33:24.713Z,7.80
2023-03-05T10:36:25.372Z,7.70
2023-03-05T10:39:30.351Z,7.80
2023-03-05T10:42:26.229Z,7.90
2023-03-05T10:44:59.641Z,8.20
2023-03-05T10:48:02.002Z,8.30
2023-03-05T10:50:45.112Z,8.40
2023-03-05T10:53:48.751Z,8.30
2023-03-05T10:56:23.189Z,8.20
2023-03-05T10:58:53.001Z,8.10
2023-03-05T11:01:31.373Z,8.10
2023-03-05T11:04:27.690Z,8.10
2023-03-05T11:07:08.774Z,8.20
2023-03-05T11:12:28.740Z,8.20
2023-03-05T11:15:31.866Z,8.20
2023-03-05T11:18:24.586Z,8.30
2023-03-05T11:21:09.711Z,8.40
2023-03-05T11:23:38.688Z,8.50
2023-03-05T11:26:14.353Z,8.60
2023-03-05T11:29:15.980Z,8.70
2023-03-05T11:31:55.190Z,8.90
2023-03-05T11:34:32.433Z,9.10
2023-03-05T11:37:07.331Z,9.10
2023-03-05T11:39:40.287Z,9.20
2023-03-05T11:42:31.817Z,9.20
2023-03-05T11:45:07.673Z,9.10
2023-03-05T11:47:55.992Z,9.30
2023-03-05T11:53:31.841Z,9.60
2023-03-05T11:56:34.551Z,9.70
2023-03-05T11:59:14.124Z,9.80
2023-03-05T12:01:49.519Z,9.70
2023-03-05T12:04:22.580Z,9.50
2023-03-05T12:07:06.601Z,9.10
2023-03-05T12:09:48.022Z,8.90
2023-03-05T12:12:46.734Z,8.90
2023-03-05T12:15:20.342Z,9.00
2023-03-05T12:18:39.810Z,9.10
2023-03-05T12:21:42.264Z,9.30
2023-03-05T12:24:36.582Z,9.30
2023-03-05T12:27:16.715Z,9.20
2023-03-05T12:29:50.433Z,9.20
2023-03-05T12:32:47.064Z,9.00
2023-03-05T12:35:48.583Z,9.10
2023-03-05T12:38:36.992Z,9.10
2023-03-05T12:41:31.044Z,9.30
2023-03-05T12:44:25.438Z,9.50
2023-03-05T12:47:11.531Z,9.70
2023-03-05T12:52:31.370Z,10.00
2023-03-05T12:55:24.373Z,10.10
2023-03-05T12:58:23.389Z,10.20
2023-03-05T13:01:16.281Z,10.30
2023-03-05T13:04:12.219Z,10.90
2023-03-05T13:09:33.943Z,10.90
2023-03-05T13:12:14.152Z,10.90
2023-03-05T13:14:47.130Z,10.80
2023-03-05T13:17:50.453Z,10.80
2023-03-05T13:20:41.302Z,10.70
2023-03-05T13:23:30.832Z,10.30
2023-03-05T13:26:20.825Z,10.10
2023-03-05T13:29:13.990Z,9.80
2023-03-05T13:31:58.898Z,9.70
2023-03-05T13:34:47.075Z,9.90
2023-03-05T13:37:21.827Z,10.00
2023-03-05T13:40:07.407Z,10.40
2023-03-05T13:42:38.436Z,12.80
2023-03-05T13:48:04.206Z,17.50
2023-03-05T13:50:52.059Z,18.90
2023-03-05T13:53:30.596Z,20.60
2023-03-05T13:56:12.832Z,22.60
2023-03-05T13:59:02.589Z,22.40
2023-03-05T14:01:39.582Z,22.90
2023-03-05T14:04:30.509Z,23.70
2023-03-05T14:07:29.200Z,23.80
2023-03-05T14:10:00.278Z,24.10
2023-03-05T14:12:43.719Z,22.10
2023-03-05T14:15:32.730Z,20.30
2023-03-05T14:18:28.055Z,19.10
2023-03-05T14:21:11.612Z,18.20
2023-03-05T14:23:53.982Z,17.60
2023-03-05T14:26:40.596Z,17.40
2023-03-05T14:29:30.004Z,15.70
2023-03-05T14:32:10.934Z,14.10
2023-03-05T14:34:52.238Z,13.00
2023-03-05T14:37:35.907Z,13.20
2023-03-05T14:40:14.793Z,15.20
2023-03-05T14:42:58.663Z,16.10
2023-03-05T14:45:31.287Z,16.50
2023-03-05T14:48:08.735Z,16.40
2023-03-05T14:50:49.630Z,16.00
2023-03-05T14:53:27.930Z,15.00
2023-03-05T14:55:59.038Z,14.30
2023-03-05T15:01:20.759Z,12.60
2023-03-05T15:03:52.326Z,12.20
2023-03-05T15:06:34.485Z,11.90
2023-03-05T15:09:02.182Z,11.80
2023-03-05T15:11:36.726Z,11.60
2023-03-05T15:14:07.984Z,11.80
2023-03-05T15:16:35.766Z,12.20
2023-03-05T15:19:06.803Z,12.10
2023-03-05T15:21:38.379Z,12.40
2023-03-05T15:24:06.410Z,12.30
2023-03-05T15:26:37.249Z,12.30
2023-03-05T15:29:16.946Z,12.00
2023-03-05T15:31:47.039Z,11.90
2023-03-05T15:34:14.694Z,11.90
2023-03-05T15:36:47.027Z,11.80
2023-03-05T15:39:18.025Z,11.70
2023-03-05T15:41:58.387Z,11.60
2023-03-05T15:44:26.855Z,11.50
2023-03-05T15:46:56.939Z,11.30
2023-03-05T15:49:26.433Z,11.10
2023-03-05T15:51:59.167Z,10.90
2023-03-05T15:54:37.275Z,10.70
2023-03-05T15:57:10.023Z,10.40
2023-03-05T15:59:38.080Z,10.20
2023-03-05T16:02:08.434Z,10.20
2023-03-05T16:04:39.027Z,10.10
2023-03-05T16:07:14.013Z,9.90
2023-03-05T16:09:48.507Z,9.80
2023-03-05T16:12:20.488Z,9.70
2023-03-05T16:14:52.614Z,9.60
2023-03-05T16:17:25.170Z,9.50
2023-03-05T16:19:57.129Z,9.50
2023-03-05T16:22:27.690Z,9.40
2023-03-05T16:24:59.064Z,9.30
2023-03-05T16:27:30.370Z,9.20
2023-03-05T16:29:58.713Z,9.20
2023-03-05T16:32:35.265Z,9.10
2023-03-05T16:35:14.110Z,9.10
2023-03-05T16:37:43.196Z,9.00
2023-03-05T16:40:18.537Z,9.00
2023-03-05T16:42:47.837Z,9.00
2023-03-05T16:45:19.061Z,8.90
2023-03-05T16:47:54.101Z,8.90
2023-03-05T16:50:31.709Z,8.90
2023-03-05T16:53:07.482Z,8.90
2023-03-05T16:55:39.964Z,8.80
2023-03-05T16:58:13.771Z,8.80
2023-03-05T17:00:43.564Z,8.80
2023-03-05T17:03:12.318Z,8.80
2023-03-05T17:05:55.459Z,8.80
2023-03-05T17:08:25.035Z,8.80
2023-03-05T17:10:59.015Z,8.80
2023-03-05T17:13:28.008Z,8.80
2023-03-05T17:16:00.121Z,8.80
2023-03-05T17:18:38.122Z,8.70
2023-03-05T17:21:09.750Z,8.70
2023-03-05T17:23:38.739Z,8.70
2023-03-05T17:26:21.971Z,8.80
2023-03-05T17:28:53.579Z,8.80
2023-03-05T17:31:28.255Z,8.80
2023-03-05T17:33:57.161Z,8.70
2023-03-05T17:36:28.523Z,8.70
2023-03-05T17:39:01.363Z,8.70
2023-03-05T17:41:34.764Z,8.70
2023-03-05T17:44:04.016Z,8.70
2023-03-05T17:46:34.927Z,8.70
2023-03-05T17:49:06.778Z,8.70
2023-03-05T17:51:38.130Z,8.60
2023-03-05T17:54:08.017Z,8.60
2023-03-05T17:56:38.136Z,8.70
2023-03-05T17:59:10.421Z,8.70
2023-03-05T18:01:41.821Z,8.60
2023-03-05T18:04:19.844Z,8.60
2023-03-05T18:06:50.489Z,8.70
2023-03-05T18:09:27.441Z,8.70
2023-03-05T18:11:56.797Z,8.70
2023-03-05T18:14:30.589Z,8.70
2023-03-05T18:17:01.359Z,8.70
2023-03-05T18:19:31.407Z,8.60
2023-03-05T18:22:03.727Z,8.60
2023-03-05T18:24:38.354Z,8.60
2023-03-05T18:27:08.207Z,8.60
2023-03-05T18:29:39.794Z,8.50
2023-03-05T18:32:11.227Z,8.50
2023-03-05T18:34:41.833Z,8.50
2023-03-05T18:37:12.261Z,8.60
2023-03-05T18:39:43.431Z,8.60
2023-03-05T18:42:18.965Z,8.60
2023-03-05T18:44:50.000Z,8.60
2023-03-05T18:47:22.951Z,8.60
2023-03-05T18:49:54.309Z,8.60
2023-03-05T18:52:25.206Z,8.60
2023-03-05T18:54:57.827Z,8.60
2023-03-05T18:57:36.292Z,8.50
2023-03-05T19:00:11.936Z,8.50
2023-03-05T19:02:54.342Z,8.50
2023-03-05T19:05:30.240Z,8.50
2023-03-05T19:08:01.679Z,8.60
2023-03-05T19:10:32.441Z,8.60
2023-03-05T19:13:27.179Z,8.60
2023-03-05T19:15:58.041Z,8.60
2023-03-05T19:18:40.226Z,8.50
2023-03-05T19:21:12.084Z,8.50
2023-03-05T19:23:41.206Z,8.50
2023-03-05T19:26:10.347Z,8.50
2023-03-05T19:28:40.402Z,8.50
2023-03-05T19:31:11.218Z,8.50
2023-03-05T19:33:48.235Z,8.50
2023-03-05T19:36:18.802Z,8.50
2023-03-05T19:41:38.795Z,8.50
2023-03-05T19:44:10.969Z,8.50
2023-03-05T19:46:42.016Z,8.50
2023-03-05T19:49:14.981Z,8.50
2023-03-05T19:51:45.407Z,8.50
2023-03-05T19:54:22.557Z,8.50
2023-03-05T19:56:55.030Z,8.50
2023-03-05T19:59:26.721Z,8.50
2023-03-05T20:01:57.647Z,8.50
2023-03-05T20:04:32.427Z,8.50
2023-03-05T20:07:00.151Z,8.50
2023-03-05T20:09:36.308Z,8.50
2023-03-05T20:12:08.589Z,8.50
2023-03-05T20:14:43.303Z,8.50
2023-03-05T20:17:13.457Z,8.50
2023-03-05T20:19:41.879Z,8.50
2023-03-05T20:22:14.984Z,8.50
2023-03-05T20:24:44.254Z,8.60
2023-03-05T20:27:15.810Z,8.60
2023-03-05T20:29:46.011Z,8.60
2023-03-05T20:32:15.551Z,8.50
2023-03-05T20:34:52.957Z,8.50
2023-03-05T20:37:41.146Z,8.60
2023-03-05T20:40:12.121Z,8.50
2023-03-05T20:42:42.816Z,8.60
2023-03-05T20:45:16.133Z,8.50
2023-03-05T20:47:50.410Z,8.60
2023-03-05T20:50:29.305Z,8.50
2023-03-05T20:53:14.204Z,8.50
2023-03-05T20:55:42.395Z,8.50
2023-03-05T20:58:11.680Z,8.50
2023-03-05T21:00:40.938Z,8.60
2023-03-05T21:03:14.581Z,8.50
2023-03-05T21:05:48.303Z,8.50
2023-03-05T21:08:32.685Z,8.50
2023-03-05T21:11:00.967Z,8.50
2023-03-05T21:13:32.624Z,8.50
2023-03-05T21:16:03.101Z,8.50
2023-03-05T21:18:33.777Z,8.60
2023-03-05T21:21:04.631Z,8.60
2023-03-05T21:23:40.126Z,8.60
2023-03-05T21:26:11.713Z,8.50
2023-03-05T21:28:53.922Z,8.40
2023-03-05T21:31:32.578Z,8.40
2023-03-05T21:34:02.083Z,8.40
2023-03-05T21:36:36.035Z,8.30
2023-03-05T21:39:05.794Z,8.30
2023-03-05T21:41:36.186Z,8.30
2023-03-05T21:44:04.496Z,8.30
2023-03-05T21:46:37.804Z,8.40
2023-03-05T21:49:13.429Z,8.40
2023-03-05T21:52:02.200Z,8.40
2023-03-05T21:54:33.969Z,8.40
2023-03-05T21:57:13.737Z,8.40
2023-03-05T21:59:44.966Z,8.40
2023-03-05T22:02:18.103Z,8.40
2023-03-05T22:04:50.790Z,8.40
2023-03-05T22:07:19.691Z,8.30
2023-03-05T22:10:00.624Z,8.30
2023-03-05T22:15:29.935Z,8.20
2023-03-05T22:18:03.545Z,8.20
2023-03-05T22:20:47.058Z,8.20
2023-03-05T22:23:27.147Z,8.20
2023-03-05T22:26:06.113Z,8.30
2023-03-05T22:28:38.967Z,8.30
2023-03-05T22:31:13.556Z,8.20
2023-03-05T22:33:46.239Z,8.20
2023-03-05T22:36:16.986Z,8.30
2023-03-05T22:38:46.430Z,8.30
2023-03-05T22:41:24.856Z,8.20
2023-03-05T22:43:56.045Z,8.10
2023-03-05T22:46:28.553Z,8.00
2023-03-05T22:49:00.555Z,8.10
2023-03-05T22:51:29.959Z,8.10
2023-03-05T22:54:06.938Z,8.10
2023-03-05T22:56:46.133Z,8.10
2023-03-05T22:59:16.861Z,8.10
2023-03-05T23:01:51.188Z,8.10
2023-03-05T23:04:50.203Z,8.10
2023-03-05T23:07:23.084Z,8.10
2023-03-05T23:09:55.910Z,8.10
2023-03-05T23:12:28.726Z,8.10
2023-03-05T23:15:03.616Z,8.10
2023-03-05T23:17:32.704Z,8.10
2023-03-05T23:20:15.452Z,8.10
2023-03-05T23:22:45.365Z,8.10
2023-03-05T23:25:17.533Z,8.00
2023-03-05T23:27:54.331Z,8.00
2023-03-05T23:30:30.818Z,7.90
2023-03-05T23:33:04.174Z,7.90
2023-03-05T23:35:41.566Z,7.80
2023-03-05T23:38:14.821Z,7.70
2023-03-05T23:40:51.960Z,7.70
2023-03-05T23:43:24.715Z,7.70
2023-03-05T23:45:55.396Z,7.70
2023-03-05T23:48:27.926Z,7.70
2023-03-05T23:51:07.242Z,7.70
2023-03-05T23:53:38.161Z,7.70
2023-03-05T23:56:12.470Z,7.80
2023-03-05T23:58:46.637Z,7.70
